PWSweather.com
Personal Weather Stations
Station Observations
FAUSKE
Nordland, Norway, FauskeNO 8200

Nordland, NorwayFauskeNO 8200

Lat: 67.2607586, Lon: 15.4114204

Elevation: 40

Station Type: Davis Vantage PRO2

http://www.bjornli.net/weather.html

Latest ConditionsUpdated 5:30:15 PM GMT+01:01 Saturday, Feb 16, 2019
Currently Today's Max Today's Min Today's Average
Temperature 36.7°F2.6°C 46.9°F8.3°C 34.9°F1.6°C 40.7°F4.8°C
Dew Point 31.4°F-0.3°C 37.4°F3.0°C 29.9°F-1.2°C 33.4°F0.8°C
Winds Calm Calm 25.0 mph -40.2 kmh - - 8.7 mph 14.0 kmh
Wind Gusts -- 37.0 mph59.5 kmh - -
Humidity 81% 90% 56% 75%
Pressure 29.33 in993.2 mb 29.33 in993.2 mb 29.03 in983.1 mb -
Hour Temp Dew Point Humidity Winds Wind Gusts Pressure Precip Precip Rate Daily Precip Total
05:30 PM 36.7°F2.6°C 31.4°F-0.3°C 81% Calm Calm -- 29.33 in993.2 mb 0.01 in0.3 mm 0.00 in0.0 mm 0.04 in1.0 mm
05:10 PM 36.1°F2.3°C 29.9°F-1.2°C 78% Calm Calm 1.0 mph1.6 kmh 29.33 in993.2 mb 0.01 in0.3 mm 0.00 in0.0 mm 0.04 in1.0 mm
05:00 PM 36.0°F2.2°C 30.1°F-1.1°C 79% Calm Calm 1.0 mph1.6 kmh 29.32 in992.9 mb 0.01 in0.3 mm 0.00 in0.0 mm 0.04 in1.0 mm
04:39 PM 35.2°F1.8°C 31.7°F-0.2°C 87% Calm Calm 1.0 mph1.6 kmh 29.30 in992.2 mb 0.02 in0.5 mm 0.00 in0.0 mm 0.04 in1.0 mm
04:29 PM 35.0°F1.7°C 31.8°F-0.1°C 88% Calm Calm 1.0 mph1.6 kmh 29.29 in991.9 mb 0.02 in0.5 mm 0.00 in0.0 mm 0.04 in1.0 mm
04:09 PM 35.2°F1.8°C 32.3°F0.2°C 89% Calm Calm 1.0 mph1.6 kmh 29.26 in990.9 mb 0.02 in0.5 mm 0.00 in0.0 mm 0.04 in1.0 mm
04:00 PM 34.9°F1.6°C 32.0°F0.0°C 89% Calm Calm -- 29.25 in990.5 mb 0.02 in0.5 mm 0.00 in0.0 mm 0.04 in1.0 mm
03:40 PM 35.6°F2.0°C 33.0°F0.6°C 90% Calm Calm 1.0 mph1.6 kmh 29.21 in989.2 mb 0.03 in0.8 mm 0.00 in0.0 mm 0.04 in1.0 mm
03:30 PM 35.6°F2.0°C 33.0°F0.6°C 90% Calm Calm -- 29.20 in988.8 mb 0.03 in0.8 mm 0.00 in0.0 mm 0.04 in1.0 mm
03:10 PM 36.3°F2.4°C 33.4°F0.8°C 89% Calm Calm 1.0 mph1.6 kmh 29.17 in987.8 mb 0.03 in0.8 mm 0.06 in1.5 mm 0.04 in1.0 mm
03:00 PM 36.6°F2.6°C 33.7°F0.9°C 89% Calm Calm -- 29.17 in987.8 mb 0.02 in0.5 mm 0.00 in0.0 mm 0.03 in0.8 mm
02:40 PM 37.3°F2.9°C 33.8°F1.0°C 87% Calm Calm 1.0 mph1.6 kmh 29.14 in986.8 mb 0.02 in0.5 mm 0.00 in0.0 mm 0.03 in0.8 mm
02:30 PM 37.2°F2.9°C 34.0°F1.1°C 88% Calm Calm -- 29.13 in986.5 mb 0.02 in0.5 mm 0.00 in0.0 mm 0.03 in0.8 mm
02:10 PM 38.0°F3.3°C 33.6°F0.9°C 84% Calm Calm 4.0 mph6.4 kmh 29.11 in985.8 mb 0.02 in0.5 mm 0.00 in0.0 mm 0.03 in0.8 mm
02:00 PM 38.2°F3.4°C 33.5°F0.8°C 83% Calm Calm 4.0 mph6.4 kmh 29.09 in985.1 mb 0.02 in0.5 mm 0.00 in0.0 mm 0.03 in0.8 mm
01:50 PM 37.8°F3.2°C 34.0°F1.1°C 86% 3.0 mph WSW4.8 kmh WSW 6.0 mph9.7 kmh 29.08 in984.8 mb 0.02 in0.5 mm 0.00 in0.0 mm 0.03 in0.8 mm
01:40 PM 37.0°F2.8°C 33.8°F1.0°C 88% Calm Calm 6.0 mph9.7 kmh 29.08 in984.8 mb 0.02 in0.5 mm 0.00 in0.0 mm 0.03 in0.8 mm
01:30 PM 38.3°F3.5°C 33.6°F0.9°C 83% 4.0 mph W6.4 kmh W 6.0 mph9.7 kmh 29.07 in984.4 mb 0.02 in0.5 mm 0.03 in0.8 mm 0.03 in0.8 mm
01:09 PM 39.0°F3.9°C 33.4°F0.8°C 80% 14.0 mph WSW22.5 kmh WSW 29.0 mph46.7 kmh 29.06 in984.1 mb 0.01 in0.3 mm 0.00 in0.0 mm 0.02 in0.5 mm
01:00 PM 38.7°F3.7°C 33.4°F0.8°C 81% 16.0 mph WSW25.7 kmh WSW 21.0 mph33.8 kmh 29.06 in984.1 mb 0.01 in0.3 mm 0.00 in0.0 mm 0.02 in0.5 mm
12:40 PM 39.5°F4.2°C 32.9°F0.5°C 77% 10.0 mph WSW16.1 kmh WSW 37.0 mph59.5 kmh 29.06 in984.1 mb 0.01 in0.3 mm 0.00 in0.0 mm 0.02 in0.5 mm
12:30 PM 39.1°F3.9°C 33.2°F0.7°C 79% 11.0 mph SW17.7 kmh SW 11.0 mph17.7 kmh 29.05 in983.7 mb 0.01 in0.3 mm 0.00 in0.0 mm 0.02 in0.5 mm
12:10 PM 37.9°F3.3°C 33.5°F0.8°C 84% 12.0 mph W19.3 kmh W 33.0 mph53.1 kmh 29.06 in984.1 mb 0.01 in0.3 mm 0.00 in0.0 mm 0.02 in0.5 mm
12:00 PM 38.6°F3.7°C 33.0°F0.6°C 80% 15.0 mph W24.1 kmh W 26.0 mph41.8 kmh 29.06 in984.1 mb 0.01 in0.3 mm 0.02 in0.5 mm 0.02 in0.5 mm
11:40 AM 40.5°F4.7°C 31.1°F-0.5°C 69% 3.0 mph W4.8 kmh W 27.0 mph43.5 kmh 29.05 in983.7 mb 0.00 in0.0 mm 0.00 in0.0 mm 0.01 in0.3 mm
11:30 AM 40.5°F4.7°C 31.5°F-0.3°C 70% 14.0 mph WSW22.5 kmh WSW 31.0 mph49.9 kmh 29.04 in983.4 mb 0.00 in0.0 mm 0.00 in0.0 mm 0.01 in0.3 mm
11:10 AM 40.3°F4.6°C 31.3°F-0.4°C 70% 12.0 mph WSW19.3 kmh WSW 31.0 mph49.9 kmh 29.03 in983.1 mb 0.00 in0.0 mm 0.00 in0.0 mm 0.01 in0.3 mm
11:00 AM 39.1°F3.9°C 31.5°F-0.3°C 74% 17.0 mph SW27.4 kmh SW 17.0 mph27.4 kmh 29.04 in983.4 mb 0.00 in0.0 mm 0.00 in0.0 mm 0.01 in0.3 mm
10:40 AM 38.5°F3.6°C 31.9°F-0.1°C 77% 12.0 mph W19.3 kmh W 21.0 mph33.8 kmh 29.05 in983.7 mb 0.00 in0.0 mm 0.00 in0.0 mm 0.01 in0.3 mm
10:29 AM 38.0°F3.3°C 31.8°F-0.1°C 78% 10.0 mph WSW16.1 kmh WSW 30.0 mph48.3 kmh 29.05 in983.7 mb 0.01 in0.3 mm 0.00 in0.0 mm 0.01 in0.3 mm
10:09 AM 38.9°F3.8°C 31.0°F-0.6°C 73% 14.0 mph W22.5 kmh W 30.0 mph48.3 kmh 29.06 in984.1 mb 0.01 in0.3 mm 0.00 in0.0 mm 0.01 in0.3 mm
10:00 AM 39.1°F3.9°C 30.5°F-0.8°C 71% 10.0 mph WNW16.1 kmh WNW 13.0 mph20.9 kmh 29.06 in984.1 mb 0.01 in0.3 mm 0.00 in0.0 mm 0.01 in0.3 mm
09:40 AM 38.9°F3.8°C 31.0°F-0.6°C 73% 10.0 mph SW16.1 kmh SW 26.0 mph41.8 kmh 29.08 in984.8 mb 0.01 in0.3 mm 0.00 in0.0 mm 0.01 in0.3 mm
09:30 AM 38.8°F3.8°C 30.6°F-0.8°C 72% 5.0 mph WSW8.0 kmh WSW 9.0 mph14.5 kmh 29.07 in984.4 mb 0.01 in0.3 mm 0.00 in0.0 mm 0.01 in0.3 mm
09:10 AM 38.5°F3.6°C 31.9°F-0.1°C 77% 9.0 mph WSW14.5 kmh WSW 15.0 mph24.1 kmh 29.07 in984.4 mb 0.01 in0.3 mm 0.00 in0.0 mm 0.01 in0.3 mm
09:00 AM 37.9°F3.3°C 32.3°F0.2°C 80% 9.0 mph WSW14.5 kmh WSW 9.0 mph14.5 kmh 29.07 in984.4 mb 0.01 in0.3 mm 0.00 in0.0 mm 0.01 in0.3 mm
08:40 AM 37.9°F3.3°C 32.6°F0.3°C 81% 9.0 mph SW14.5 kmh SW 18.0 mph29.0 kmh 29.08 in984.8 mb 0.01 in0.3 mm 0.00 in0.0 mm 0.01 in0.3 mm
08:30 AM 38.3°F3.5°C 32.4°F0.2°C 79% 8.0 mph SW12.9 kmh SW 9.0 mph14.5 kmh 29.08 in984.8 mb 0.01 in0.3 mm 0.00 in0.0 mm 0.01 in0.3 mm
08:10 AM 40.3°F4.6°C 32.0°F0.0°C 72% 7.0 mph W11.3 kmh W 22.0 mph35.4 kmh 29.06 in984.1 mb 0.01 in0.3 mm 0.00 in0.0 mm 0.01 in0.3 mm
08:00 AM 40.0°F4.4°C 32.1°F0.1°C 73% 4.0 mph WSW6.4 kmh WSW 10.0 mph16.1 kmh 29.07 in984.4 mb 0.01 in0.3 mm 0.00 in0.0 mm 0.01 in0.3 mm
07:40 AM 39.7°F4.3°C 32.8°F0.4°C 76% 10.0 mph SW16.1 kmh SW 21.0 mph33.8 kmh 29.08 in984.8 mb 0.01 in0.3 mm 0.00 in0.0 mm 0.01 in0.3 mm
07:30 AM 40.1°F4.5°C 32.8°F0.4°C 75% 13.0 mph SW20.9 kmh SW 25.0 mph40.2 kmh 29.08 in984.8 mb 0.01 in0.3 mm 0.00 in0.0 mm 0.01 in0.3 mm
07:09 AM 39.9°F4.4°C 33.6°F0.9°C 78% 13.0 mph W20.9 kmh W 25.0 mph40.2 kmh 29.09 in985.1 mb 0.01 in0.3 mm 0.07 in1.8 mm 0.01 in0.3 mm
07:00 AM 39.7°F4.3°C 33.4°F0.8°C 78% 11.0 mph SW17.7 kmh SW 16.0 mph25.7 kmh 29.08 in984.8 mb 0.00 in0.0 mm 0.00 in0.0 mm 0.00 in0.0 mm
06:40 AM 42.3°F5.7°C 32.9°F0.5°C 69% 9.0 mph SW14.5 kmh SW 28.0 mph45.1 kmh 29.10 in985.4 mb 0.00 in0.0 mm 0.00 in0.0 mm 0.00 in0.0 mm
06:30 AM 42.1°F5.6°C 32.3°F0.2°C 68% 15.0 mph WSW24.1 kmh WSW 15.0 mph24.1 kmh 29.08 in984.8 mb 0.00 in0.0 mm 0.00 in0.0 mm 0.00 in0.0 mm
06:09 AM 43.3°F6.3°C 32.3°F0.2°C 65% 19.0 mph SW30.6 kmh SW 24.0 mph38.6 kmh 29.10 in985.4 mb 0.00 in0.0 mm 0.00 in0.0 mm 0.00 in0.0 mm
06:00 AM 43.9°F6.6°C 31.7°F-0.2°C 62% 15.0 mph WSW24.1 kmh WSW 17.0 mph27.4 kmh 29.11 in985.8 mb 0.00 in0.0 mm 0.00 in0.0 mm 0.00 in0.0 mm
05:39 AM 44.9°F7.2°C 31.0°F-0.6°C 58% 10.0 mph WSW16.1 kmh WSW 23.0 mph37.0 kmh 29.11 in985.8 mb 0.00 in0.0 mm 0.00 in0.0 mm 0.00 in0.0 mm
05:30 AM 45.7°F7.6°C 30.9°F-0.6°C 56% 12.0 mph WSW19.3 kmh WSW 33.0 mph53.1 kmh 29.10 in985.4 mb 0.00 in0.0 mm 0.00 in0.0 mm 0.00 in0.0 mm
05:10 AM 45.5°F7.5°C 35.2°F1.8°C 67% 5.0 mph SW8.0 kmh SW 24.0 mph38.6 kmh 29.08 in984.8 mb 0.00 in0.0 mm 0.00 in0.0 mm 0.00 in0.0 mm
05:00 AM 44.8°F7.1°C 37.4°F3.0°C 75% 12.0 mph SW19.3 kmh SW 17.0 mph27.4 kmh 29.08 in984.8 mb 0.00 in0.0 mm 0.00 in0.0 mm 0.00 in0.0 mm
04:40 AM 44.0°F6.7°C 36.6°F2.6°C 75% 8.0 mph S12.9 kmh S 21.0 mph33.8 kmh 29.07 in984.4 mb 0.00 in0.0 mm 0.00 in0.0 mm 0.00 in0.0 mm
04:30 AM 43.7°F6.5°C 36.6°F2.6°C 76% 9.0 mph S14.5 kmh S 9.0 mph14.5 kmh 29.07 in984.4 mb 0.00 in0.0 mm 0.00 in0.0 mm 0.00 in0.0 mm
04:10 AM 43.9°F6.6°C 36.5°F2.5°C 75% 16.0 mph S25.7 kmh S 26.0 mph41.8 kmh 29.08 in984.8 mb 0.00 in0.0 mm 0.00 in0.0 mm 0.00 in0.0 mm
04:00 AM 43.6°F6.4°C 36.6°F2.6°C 76% 25.0 mph S40.2 kmh S 26.0 mph41.8 kmh 29.09 in985.1 mb 0.00 in0.0 mm 0.00 in0.0 mm 0.00 in0.0 mm
03:40 AM 43.8°F6.6°C 36.1°F2.3°C 74% 5.0 mph SSE8.0 kmh SSE 25.0 mph40.2 kmh 29.11 in985.8 mb 0.00 in0.0 mm 0.00 in0.0 mm 0.00 in0.0 mm
03:30 AM 43.8°F6.6°C 36.1°F2.3°C 74% 16.0 mph S25.7 kmh S 16.0 mph25.7 kmh 29.12 in986.1 mb 0.00 in0.0 mm 0.00 in0.0 mm 0.00 in0.0 mm
03:10 AM 43.5°F6.4°C 35.8°F2.1°C 74% 11.0 mph SSW17.7 kmh SSW 24.0 mph38.6 kmh 29.15 in987.1 mb 0.00 in0.0 mm 0.00 in0.0 mm 0.00 in0.0 mm
03:00 AM 43.9°F6.6°C 35.8°F2.1°C 73% 14.0 mph S22.5 kmh S 15.0 mph24.1 kmh 29.16 in987.5 mb 0.00 in0.0 mm 0.00 in0.0 mm 0.00 in0.0 mm
02:40 AM 45.0°F7.2°C 35.5°F1.9°C 69% 8.0 mph SW12.9 kmh SW 22.0 mph35.4 kmh 29.19 in988.5 mb 0.00 in0.0 mm 0.00 in0.0 mm 0.00 in0.0 mm
02:30 AM 45.6°F7.6°C 35.3°F1.8°C 67% 9.0 mph SW14.5 kmh SW 34.0 mph54.7 kmh 29.18 in988.1 mb 0.00 in0.0 mm 0.00 in0.0 mm 0.00 in0.0 mm
02:10 AM 46.4°F8.0°C 34.9°F1.6°C 64% 21.0 mph SW33.8 kmh SW 34.0 mph54.7 kmh 29.20 in988.8 mb 0.00 in0.0 mm 0.00 in0.0 mm 0.00 in0.0 mm
02:00 AM 46.9°F8.3°C 33.8°F1.0°C 60% 16.0 mph SSW25.7 kmh SSW 16.0 mph25.7 kmh 29.21 in989.2 mb 0.00 in0.0 mm 0.00 in0.0 mm 0.00 in0.0 mm
01:40 AM 46.7°F8.2°C 34.8°F1.6°C 63% 16.0 mph S25.7 kmh S 22.0 mph35.4 kmh 29.21 in989.2 mb 0.00 in0.0 mm 0.00 in0.0 mm 0.00 in0.0 mm
01:30 AM 46.7°F8.2°C 35.2°F1.8°C 64% 10.0 mph S16.1 kmh S 15.0 mph24.1 kmh 29.20 in988.8 mb 0.00 in0.0 mm 0.00 in0.0 mm 0.00 in0.0 mm
01:09 AM 46.6°F8.1°C 35.1°F1.7°C 64% 6.0 mph SSW9.7 kmh SSW 20.0 mph32.2 kmh 29.22 in989.5 mb 0.00 in0.0 mm 0.00 in0.0 mm 0.00 in0.0 mm
01:00 AM 46.3°F7.9°C 35.2°F1.8°C 65% 2.0 mph SSE3.2 kmh SSE 2.0 mph3.2 kmh 29.24 in990.2 mb 0.00 in0.0 mm 0.00 in0.0 mm 0.00 in0.0 mm
12:40 AM 46.5°F8.1°C 35.4°F1.9°C 65% 14.0 mph SSW22.5 kmh SSW 26.0 mph41.8 kmh 29.28 in991.5 mb 0.00 in0.0 mm 0.00 in0.0 mm 0.00 in0.0 mm
12:30 AM 46.3°F7.9°C 36.0°F2.2°C 67% 10.0 mph W16.1 kmh W 15.0 mph24.1 kmh 29.28 in991.5 mb 0.00 in0.0 mm 0.00 in0.0 mm 0.00 in0.0 mm
12:10 AM 45.5°F7.5°C 36.3°F2.4°C 70% 18.0 mph SE29.0 kmh SE 31.0 mph49.9 kmh 29.31 in992.6 mb 0.00 in0.0 mm 0.00 in0.0 mm 0.00 in0.0 mm
12:00 AM 45.8°F7.7°C 36.6°F2.6°C 70% 13.0 mph SE20.9 kmh SE 13.0 mph20.9 kmh 29.31 in992.6 mb 0.00 in0.0 mm 0.00 in0.0 mm 0.00 in0.0 mm